普天間 の空港の天気 - METARとTAF

普天間飛行場 ( ROTM / ) - 沖縄県宜野湾市
飛行場実況気象(Metar)
観測時間01/23 07:56 JST (01/22 22:56 UTC)
風向・風速静穏 0m/s
視程10km以上
天気現象
全天の8割程度の雲 雲底高度 5490m
気温20℃
湿度78%
気圧1020.3hPa
METARROTM 222256Z 00000KT 8SM BKN180 20/16 A3017 RMK AO2 SLP203 T02000161 $
過去の天気等 Google飛行場航空写真 Wunderground天気予報

過去48時間のMETAR

飛行場予報(TAF)
発表時間: -
23日23時 JST ~ 24日1時 JST に徐々に
風向・風速不定 3m/s
視程10km以上
全天の4割程度の雲 雲底高度 1520m
全天の4割程度の雲 雲底高度 6710m
TAF ROTM 2221/2321 18008KT 9999 FEW040 SCT080 SCT200 QNH3012INS
BECMG 2314/2316 VRB06KT 9999 SCT050 SCT220 QNH3014INS T22/2304Z T18/2314Z
日本の空港のMETAR・TAFへのリンク

RJTT 東京国際空港
RJAA 新東京国際空港
RJBB 関西国際空港
RJOO 大阪空港
RJGG 中部国際空港
RJCC 新千歳空港
RJFF 福岡空港
ROAH 那覇空港


RJEC 旭川空港
RJCH 函館空港
RJCK 釧路空港
RJCM 女満別空港
RJCB 帯広空港
RJSA 青森空港
RJSS 仙台空港
RJSK 秋田空港
RJSF 福島空港
RJAH 茨城空港
RJSN 新潟空港
RJNT 富山空港
RJNK 小松飛行場
RJNS 静岡空港
RJOH 美保飛行場
RJOC 出雲空港
RJOB 岡山空港
RJOA 広島空港
RJOI 岩国飛行場
RJOT 高松空港
RJOM 松山空港
RJOK 高知空港
RJFR 北九州空港
RJFT 熊本空港
RJFU 長崎空港
RJFS 佐賀空港
RJFO 大分空港
RJFM 宮崎空港
RJFK 鹿児島空港
ROIG 石垣島空港
RJTY 横田飛行場
ROTM 普天間飛行場
RODN 嘉手納飛行場